Stormwatcher's Retreat Logo




                  Temp     Hi    Low   Out    Dew  Wind  Wind   Wind    Hi    Hi   Wind   Heat    THW   THSW                Rain  Solar   Solar Hi Solar   UV    UV    Hi     Heat    Cool    In     In    In     In     In   In Air          Wind  Wind    ISS   Arc.
  Date    Time     Out   Temp   Temp   Hum    Pt. Speed   Dir    Run Speed   Dir  Chill  Index  Index  Index   Bar    Rain  Rate   Rad.  Energy    Rad.  Index  Dose   UV     D-D     D-D    Temp   Hum    Dew   Heat    EMC Density     ET   Samp   Tx   Recept  Int.
------------------------------------------------------------------------------------------------------------------------------------------------------------------------------------------------------------------------------------------------------------------------
10/16/19 12:10a   57.8   58.0   57.7    72   48.8  11.0   SSW   1.83  20.0    SW   53.8   57.1   53.1   51.0  29.935  0.00  0.00     0     0.00      0     0.0  0.00   0.0   0.050   0.000   71.8    47   50.5   70.5   8.75  .0738    0.000   212    5    100.0   10 
10/16/19 12:20a   57.7   57.9   57.7    72   48.7   9.0   SSW   1.50  17.0    SW   54.9   57.0   54.2   51.9  29.932  0.00  0.00     0     0.00      0     0.0  0.00   0.0   0.051   0.000   71.8    47   50.5   70.5   8.75  .0738    0.000   213    5    100.0   10 
10/16/19 12:30a   57.7   57.8   57.7    72   48.7  10.0   SSW   1.67  19.0   SSW   54.3   57.0   53.6   51.4  29.928  0.00  0.00     0     0.00      0     0.0  0.00   0.0   0.051   0.000   71.7    47   50.4   70.3   8.75  .0738    0.000   213    5    100.0   10 
10/16/19 12:40a   58.2   58.2   57.7    72   49.2  11.0   SSW   1.83  22.0   SSE   54.2   57.5   53.5   51.4  29.925  0.00  0.00     0     0.00      0     0.0  0.00   0.0   0.047   0.000   71.7    47   50.4   70.3   8.75  .0738    0.000   212    5    100.0   10 
10/16/19 12:50a   58.2   58.3   58.1    72   49.2  11.0   SSW   1.83  19.0   SSE   54.2   57.5   53.5   51.4  29.922  0.00  0.00     0     0.00      0     0.0  0.00   0.0   0.047   0.000   71.7    47   50.4   70.3   8.75  .0738    0.000   212    5    100.0   10 
10/16/19  1:00a   58.1   58.2   58.1    72   49.1  10.0   SSW   1.67  20.0    SW   54.7   57.4   54.0   51.8  29.914  0.00  0.00     0     0.00      0     0.0  0.00   0.0   0.048   0.000   71.7    47   50.4   70.3   8.75  .0737    0.002   213    5    100.0   10 
10/16/19  1:10a   58.4   58.4   58.0    72   49.4  11.0   SSW   1.83  20.0   SSE   54.5   57.7   53.8   51.7  29.915  0.00  0.00     0     0.00      0     0.0  0.00   0.0   0.046   0.000   71.7    47   50.4   70.3   8.75  .0738    0.000   210    5    100.0   10 
10/16/19  1:20a   58.1   58.5   58.0    72   49.1  12.0   SSW   2.00  23.0   SSW   53.6   57.4   52.9   50.8  29.917  0.00  0.00     0     0.00      0     0.0  0.00   0.0   0.048   0.000   71.7    47   50.4   70.3   8.75  .0738    0.000   212    5    100.0   10 
10/16/19  1:30a   58.2   58.3   58.1    72   49.2  13.0   SSW   2.17  21.0   SSW   53.2   57.5   52.5   50.5  29.913  0.00  0.00     0     0.00      0     0.0  0.00   0.0   0.047   0.000   71.7    47   50.4   70.3   8.75  .0737    0.000   214    5    100.0   10 
10/16/19  1:40a   58.1   58.4   58.1    72   49.1  12.0   SSW   2.00  26.0   SSE   53.6   57.4   52.9   50.8  29.914  0.00  0.00     0     0.00      0     0.0  0.00   0.0   0.048   0.000   71.7    47   50.4   70.3   8.75  .0737    0.000   213    5    100.0   10 
10/16/19  1:50a   58.4   58.4   58.1    72   49.4  12.0   SSW   2.00  22.0   SSW   53.9   57.7   53.2   51.1  29.915  0.00  0.00     0     0.00      0     0.0  0.00   0.0   0.046   0.000   71.6    47   50.3   70.2   8.75  .0738    0.000   212    5    100.0   10 
10/16/19  2:00a   58.5   58.6   58.4    71   49.1  14.0   SSW   2.33  24.0   SSE   53.2   57.8   52.5   50.6  29.911  0.00  0.00     0     0.00      0     0.0  0.00   0.0   0.045   0.000   71.6    47   50.3   70.2   8.75  .0738    0.003   214    5    100.0   10 
10/16/19  2:10a   58.6   58.6   58.4    70   48.8  14.0   SSW   2.33  27.0     S   53.3   57.9   52.6   50.7  29.912  0.00  0.00     0     0.00      0     0.0  0.00   0.0   0.044   0.000   71.6    47   50.3   70.2   8.75  .0738    0.000   212    5    100.0   10 
10/16/19  2:20a   58.6   58.6   58.4    70   48.8  15.0   SSW   2.50  33.0     S   53.0   57.9   52.3   50.4  29.911  0.00  0.00     0     0.00      0     0.0  0.00   0.0   0.044   0.000   71.6    47   50.3   70.2   8.75  .0738    0.000   212    5    100.0   10 
10/16/19  2:30a   58.5   58.6   58.4    70   48.7  15.0   SSW   2.50  26.0   SSE   52.9   57.8   52.2   50.3  29.907  0.00  0.00     0     0.00      0     0.0  0.00   0.0   0.045   0.000   71.6    47   50.3   70.2   8.75  .0737    0.000   212    5    100.0   10 
10/16/19  2:40a   58.5   58.5   58.4    70   48.7  17.0   SSW   2.83  31.0    SW   52.3   57.8   51.6   49.8  29.908  0.00  0.00     0     0.00      0     0.0  0.00   0.0   0.045   0.000   71.6    47   50.3   70.2   8.75  .0738    0.000   213    5    100.0   10 
10/16/19  2:50a   58.6   58.7   58.5    70   48.8  17.0   SSW   2.83  31.0     S   52.4   57.9   51.7   49.9  29.901  0.00  0.00     0     0.00      0     0.0  0.00   0.0   0.044   0.000   71.6    47   50.3   70.2   8.75  .0737    0.000   214    5    100.0   10 
10/16/19  3:00a   58.7   58.7   58.5    69   48.6  16.0   SSW   2.67  33.0   SSW   52.8   57.9   52.0   50.2  29.893  0.00  0.00     0     0.00      0     0.0  0.00   0.0   0.044   0.000   71.6    47   50.3   70.2   8.75  .0737    0.004   211    5    100.0   10 
10/16/19  3:10a   59.0   59.0   58.6    68   48.4  12.0   SSW   2.00  22.0   SSE   54.6   58.2   53.8   51.7  29.890  0.00  0.00     0     0.00      0     0.0  0.00   0.0   0.042   0.000   71.6    47   50.3   70.2   8.75  .0737    0.000   213    5    100.0   10 
10/16/19  3:20a   58.9   59.1   58.7    68   48.4  12.0   SSW   2.00  23.0   SSE   54.5   58.1   53.7   51.6  29.891  0.00  0.00     0     0.00      0     0.0  0.00   0.0   0.042   0.000   71.6    47   50.3   70.2   8.75  .0737    0.000   214    5    100.0   10 
10/16/19  3:30a   59.0   59.1   58.8    68   48.4  14.0   SSW   2.33  27.0     S   53.8   58.2   53.0   51.1  29.886  0.00  0.00     0     0.00      0     0.0  0.00   0.0   0.042   0.000   71.6    47   50.3   70.2   8.75  .0737    0.000   213    5    100.0   10 
10/16/19  3:40a   59.0   59.0   58.7    68   48.4  14.0   SSW   2.33  27.0   SSW   53.8   58.2   53.0   51.1  29.879  0.00  0.00     0     0.00      0     0.0  0.00   0.0   0.042   0.000   71.6    47   50.3   70.2   8.75  .0737    0.000   213    5    100.0   10 
10/16/19  3:50a   59.1   59.2   59.0    67   48.1  12.0   SSW   2.00  28.0   SSW   54.7   58.2   53.8   51.7  29.876  0.00  0.00     0     0.00      0     0.0  0.00   0.0   0.041   0.000   71.6    47   50.3   70.2   8.75  .0737    0.000   214    5    100.0   10 
10/16/19  4:00a   59.7   59.7   59.1    67   48.7  12.0   SSW   2.00  23.0     S   55.4   58.9   54.6   52.5  29.865  0.00  0.00     0     0.00      0     0.0  0.00   0.0   0.037   0.000   71.6    47   50.3   70.2   8.75  .0736    0.003   211    5    100.0   10 
10/16/19  4:10a   60.1   60.1   59.7    68   49.5  13.0   SSW   2.17  25.0    SW   55.4   59.4   54.7   52.7  29.862  0.00  0.00     0     0.00      0     0.0  0.00   0.0   0.034   0.000   71.6    47   50.3   70.2   8.75  .0736    0.000   213    5    100.0   10 
10/16/19  4:20a   60.5   60.5   60.1    69   50.3  12.0   SSW   2.00  26.0   SSE   56.4   59.8   55.7   53.6  29.854  0.00  0.00     0     0.00      0     0.0  0.00   0.0   0.031   0.000   71.5    47   50.2   70.0   8.75  .0736    0.000   212    5    100.0   10 
10/16/19  4:30a   60.6   60.7   60.5    68   50.0  11.0   SSW   1.83  23.0   SSW   57.0   59.9   56.3   54.2  29.853  0.00  0.00     0     0.00      0     0.0  0.00   0.0   0.031   0.000   71.5    47   50.2   70.0   8.75  .0736    0.000   213    5    100.0   10 
10/16/19  4:40a   60.7   60.8   60.6    68   50.1  13.0   SSW   2.17  27.0    SW   56.1   60.0   55.4   53.4  29.853  0.00  0.00     0     0.00      0     0.0  0.00   0.0   0.030   0.000   71.5    47   50.2   70.0   8.75  .0736    0.000   211    5    100.0   10 
10/16/19  4:50a   60.7   60.9   60.6    67   49.7  14.0   SSW   2.33  23.0   SSE   55.7   60.0   55.0   53.1  29.854  0.00  0.00     0     0.00      0     0.0  0.00   0.0   0.030   0.000   71.5    47   50.2   70.0   8.75  .0736    0.000   213    5    100.0   10 
10/16/19  5:00a   60.5   60.8   60.5    66   49.1  15.0   SSW   2.50  28.0   SSW   55.1   59.7   54.3   52.4  29.849  0.00  0.00     0     0.00      0     0.0  0.00   0.0   0.031   0.000   71.5    47   50.2   70.0   8.75  .0736    0.003   213    5    100.0   10 
10/16/19  5:10a   60.7   60.7   60.5    66   49.3  13.0   SSW   2.17  23.0   SSE   56.1   59.9   55.3   53.3  29.846  0.00  0.00     0     0.00      0     0.0  0.00   0.0   0.030   0.000   71.5    47   50.2   70.0   8.75  .0736    0.000   212    5    100.0   10 
10/16/19  5:20a   61.0   61.0   60.6    65   49.1  12.0   SSW   2.00  23.0     S   56.9   60.2   56.1   54.0  29.840  0.00  0.00     0     0.00      0     0.0  0.00   0.0   0.028   0.000   71.5    47   50.2   70.0   8.75  .0736    0.000   213    5    100.0   10 
10/16/19  5:30a   60.7   61.0   60.7    66   49.3  13.0   SSW   2.17  22.0   SSW   56.1   59.9   55.3   53.3  29.836  0.00  0.00     0     0.00      0     0.0  0.00   0.0   0.030   0.000   71.5    47   50.2   70.0   8.75  .0736    0.000   212    5    100.0   10 
10/16/19  5:40a   60.2   60.8   60.2    68   49.6  11.0   SSW   1.83  25.0   SSW   56.5   59.5   55.8   53.7  29.833  0.00  0.00     0     0.00      0     0.0  0.00   0.0   0.033   0.000   71.5    47   50.2   70.0   8.75  .0736    0.000   213    5    100.0   10 
10/16/19  5:50a   60.2   60.3   60.1    69   50.0  10.0   SSW   1.67  20.0    SW   57.2   59.5   56.5   54.3  29.833  0.00  0.00     0     0.00      0     0.0  0.00   0.0   0.033   0.000   71.5    47   50.2   70.0   8.75  .0736    0.000   211    5    100.0   10 
10/16/19  6:00a   60.0   60.5   60.0    69   49.8  13.0   SSW   2.17  24.0   SSE   55.3   59.3   54.6   52.6  29.837  0.00  0.00     0     0.00      0     0.0  0.00   0.0   0.035   0.000   71.5    47   50.2   70.0   8.75  .0736    0.003   213    5    100.0   10 
10/16/19  6:10a   59.4   60.0   59.4    71   50.0  10.0   SSW   1.67  21.0   SSE   56.3   58.8   55.7   53.5  29.835  0.00  0.00     0     0.00      0     0.0  0.00   0.0   0.039   0.000   71.5    47   50.2   70.0   8.75  .0736    0.000   213    5    100.0   10 
10/16/19  6:20a   59.0   59.4   59.0    72   50.0  12.0   SSW   2.00  22.0   WSW   54.6   58.4   54.0   51.9  29.832  0.01  0.00     0     0.00      0     0.0  0.00   0.0   0.042   0.000   71.4    47   50.1   69.9   8.75  .0736    0.000   214    5    100.0   10 
10/16/19  6:30a   58.7   59.0   58.7    73   50.1  10.0   SSW   1.67  20.0   SSW   55.4   58.1   54.8   52.6  29.833  0.00  0.00     0     0.00      0     0.0  0.00   0.0   0.044   0.000   71.4    47   50.1   69.9   8.75  .0736    0.000   211    5    100.0   10 
10/16/19  6:40a   58.6   58.7   58.5    74   50.3  11.0   SSW   1.83  21.0     S   54.7   58.1   54.2   52.1  29.830  0.00  0.00     0     0.00      0     0.0  0.00   0.0   0.044   0.000   71.4    47   50.1   69.9   8.75  .0736    0.000   213    5    100.0   10 
10/16/19  6:50a   58.2   58.6   58.2    74   50.0  10.0   SSW   1.67  19.0   SSW   54.8   57.6   54.2   52.0  29.828  0.00  0.00     0     0.00      0     0.0  0.00   0.0   0.047   0.000   71.4    47   50.1   69.9   8.75  .0736    0.000   212    5    100.0   10 
10/16/19  7:00a   57.8   58.2   57.7    75   49.9  12.0   SSW   2.00  22.0    SW   53.3   57.3   52.8   50.7  29.821  0.01  0.00     0     0.00      0     0.0  0.00   0.0   0.050   0.000   71.4    47   50.1   69.9   8.75  .0736    0.002   212    5    100.0   10 
10/16/19  7:10a   57.8   57.9   57.8    76   50.3  13.0   SSW   2.17  24.0   SSW   52.8   57.4   52.4   50.4  29.825  0.00  0.00     0     0.00      0     0.0  0.00   0.0   0.050   0.000   71.4    47   50.1   69.9   8.75  .0736    0.000   211    5    100.0   10 
10/16/19  7:20a   57.3   57.8   57.3    77   50.1  10.0   SSW   1.67  19.0     S   53.8   56.9   53.4   51.2  29.817  0.00  0.00     0     0.00      0     0.0  0.00   0.0   0.053   0.000   71.4    47   50.1   69.9   8.75  .0736    0.000   213    5    100.0   10 
10/16/19  7:30a   57.4   57.4   57.2    77   50.2  10.0   SSW   1.67  17.0   SSW   53.9   57.0   53.5   51.3  29.816  0.00  0.00     0     0.00      0     0.0  0.00   0.0   0.053   0.000   71.4    48   50.7   70.0   8.88  .0735    0.000   213    5    100.0   10 
10/16/19  7:40a   57.7   57.7   57.4    76   50.2  11.0   SSW   1.83  21.0   SSW   53.7   57.3   53.3   51.2  29.816  0.00  0.00     0     0.00      0     0.0  0.00   0.0   0.051   0.000   71.4    48   50.7   70.0   8.88  .0735    0.000   213    5    100.0   10 
10/16/19  7:50a   57.6   57.8   57.6    76   50.1  12.0   SSW   2.00  25.0   SSW   53.0   57.2   52.6   50.6  29.816  0.00  0.00     1     0.01      5     0.0  0.00   0.0   0.051   0.000   71.4    48   50.7   70.0   8.88  .0735    0.000   214    5    100.0   10 
10/16/19  8:00a   57.0   57.6   57.0    78   50.2  11.0   SSW   1.83  23.0   SSE   52.9   56.6   52.5   50.5  29.815  0.00  0.00     5     0.07      5     0.0  0.00   0.0   0.056   0.000   71.4    48   50.7   70.0   8.88  .0735    0.002   213    5    100.0   10 
10/16/19  8:10a   56.8   57.0   56.8    79   50.4  10.0   SSW   1.67  22.0     S   53.3   56.5   53.0   51.0  29.816  0.01  0.00     7     0.10      9     0.0  0.00   0.0   0.057   0.000   71.4    48   50.7   70.0   8.88  .0735    0.000   213    5    100.0   10 
10/16/19  8:20a   56.8   56.9   56.8    79   50.4  11.0   SSW   1.83  22.0     S   52.7   56.5   52.4   50.5  29.818  0.00  0.00    11     0.16     14     0.0  0.00   0.0   0.057   0.000   71.4    48   50.7   70.0   8.88  .0735    0.000   213    5    100.0   10 
10/16/19  8:30a   56.8   56.8   56.7    80   50.7  10.0   SSW   1.67  17.0   SSW   53.3   56.5   53.0   52.1  29.817  0.00  0.00    20     0.29     28     0.0  0.00   0.0   0.057   0.000   71.5    48   50.8   70.2   8.88  .0735    0.000   212    5    100.0   10 
10/16/19  8:40a   56.7   56.8   56.7    81   50.9  10.0   SSW   1.67  17.0   SSW   53.1   56.4   52.8   53.2  29.814  0.00  0.00    51     0.73     65     0.0  0.00   0.0   0.058   0.000   71.5    48   50.8   70.2   8.88  .0735    0.000   213    5    100.0   10 
10/16/19  8:50a   56.7   56.7   56.6    81   50.9  10.0   SSW   1.67  18.0   SSW   53.1   56.4   52.8   53.2  29.814  0.00  0.00    51     0.73     65     0.0  0.00   0.0   0.058   0.000   71.5    48   50.8   70.2   8.88  .0735    0.000   214    5    100.0   10 
10/16/19  9:00a   56.9   56.9   56.6    81   51.1  11.0   SSW   1.83  21.0     S   52.8   56.6   52.5   52.2  29.808  0.01  0.00    36     0.52     40     0.0  0.00   0.0   0.056   0.000   71.5    48   50.8   70.2   8.88  .0735    0.002   213    5    100.0   10 
10/16/19  9:10a   57.2   57.2   56.9    81   51.4  12.0   SSW   2.00  23.0     S   52.5   57.0   52.3   52.4  29.809  0.00  0.00    47     0.67     54     0.0  0.00   0.0   0.054   0.000   71.6    48   50.9   70.3   8.88  .0735    0.000   212    5    100.0   10 
10/16/19  9:20a   57.0   57.2   57.0    81   51.2  10.0   SSW   1.67  19.0     S   53.5   56.7   53.2   52.6  29.807  0.01  0.04    31     0.44     47     0.0  0.00   0.0   0.056   0.000   71.6    48   50.9   70.3   8.88  .0735    0.000   212    5    100.0   10 
10/16/19  9:30a   57.1   57.1   57.0    81   51.3  10.0   SSW   1.67  18.0     S   53.6   56.8   53.3   52.9  29.809  0.00  0.04    39     0.56     69     0.0  0.00   0.0   0.055   0.000   71.6    48   50.9   70.3   8.88  .0735    0.000   212    5    100.0   10 
10/16/19  9:40a   57.3   57.3   57.1    81   51.5  12.0   SSW   2.00  37.0    SW   52.7   57.1   52.5   52.5  29.811  0.01  0.04    50     0.72     63     0.0  0.00   0.0   0.053   0.000   71.6    48   50.9   70.3   8.88  .0735    0.000   212    5    100.0   10 
10/16/19  9:50a   57.5   57.5   57.3    81   51.7  13.0   SSW   2.17  26.0   SSW   52.5   57.3   52.3   53.2  29.811  0.01  0.04    79     1.13     95     0.0  0.00   0.0   0.052   0.000   71.6    48   50.9   70.3   8.88  .0735    0.000   211    5    100.0   10 
10/16/19 10:00a   57.4   57.5   57.3    82   51.9  12.0   SSW   2.00  23.0     S   52.8   57.2   52.6   53.7  29.812  0.00  0.04    91     1.30    109     0.0  0.00   0.0   0.053   0.000   71.7    48   51.0   70.4   8.88  .0735    0.003   213    5    100.0   10 
10/16/19 10:10a   57.5   57.5   57.3    82   52.0  14.0   SSW   2.33  26.0     S   52.1   57.3   51.9   53.1  29.810  0.00  0.00    97     1.39    107     0.0  0.00   0.0   0.052   0.000   71.7    48   51.0   70.4   8.88  .0735    0.000   211    5    100.0   10 
10/16/19 10:20a   57.4   57.5   57.4    83   52.3  13.0   SSW   2.17  23.0   SSE   52.3   57.2   52.1   53.6  29.810  0.00  0.00   109     1.56    125     0.0  0.00   0.0   0.053   0.000   71.8    48   51.0   70.6   8.89  .0735    0.000   213    5    100.0   10 
10/16/19 10:30a   57.5   57.6   57.4    83   52.4  13.0   SSW   2.17  30.0   SSW   52.5   57.3   52.3   54.2  29.809  0.00  0.00   126     1.81    144     0.0  0.00   0.0   0.052   0.000   71.8    48   51.0   70.6   8.89  .0735    0.000   211    5    100.0   10 
10/16/19 10:40a   57.6   57.7   57.5    83   52.5  15.0   SSW   2.50  26.0     S   51.8   57.4   51.6   54.4  29.809  0.00  0.00   174     2.49    188     0.0  0.00   0.0   0.051   0.000   71.9    48   51.1   70.8   8.89  .0734    0.000   212    5    100.0   10 
10/16/19 10:50a   57.5   57.6   57.5    83   52.4  16.0   SSW   2.67  32.0   SSE   51.4   57.3   51.2   53.2  29.809  0.00  0.00   145     2.08    171     0.0  0.00   0.0   0.052   0.000   71.9    48   51.1   70.8   8.89  .0734    0.000   212    5    100.0   10 
10/16/19 11:00a   57.4   57.6   57.4    83   52.3  16.0   SSW   2.67  27.0   SSW   51.3   57.2   51.1   53.0  29.810  0.00  0.00   144     2.06    186     0.0  0.00   0.0   0.053   0.000   72.0    48   51.2   70.9   8.89  .0734    0.005   212    5    100.0   10 
10/16/19 11:10a   57.4   57.5   57.4    84   52.6  16.0   SSW   2.67  28.0   SSW   51.3   57.3   51.2   53.2  29.809  0.00  0.00   154     2.21    209     0.0  0.00   0.0   0.053   0.000   72.0    48   51.2   70.9   8.89  .0734    0.000   214    5    100.0   10 
10/16/19 11:20a   57.4   57.5   57.4    84   52.6  17.0   SSW   2.83  28.0     S   51.0   57.3   50.9   53.6  29.812  0.00  0.00   198     2.84    229     0.0  0.00   0.0   0.053   0.000   72.0    48   51.2   70.9   8.89  .0734    0.000   213    5    100.0   10 
10/16/19 11:30a   57.2   57.4   57.2    83   52.1  17.0   SSW   2.83  27.0    SW   50.7   57.0   50.5   53.0  29.808  0.00  0.00   190     2.72    234     0.0  0.00   0.0   0.054   0.000   72.1    48   51.3   71.0   8.89  .0734    0.000   212    5    100.0   10 
10/16/19 11:40a   56.8   57.2   56.7    84   52.0  17.0   SSW   2.83  28.0   SSW   50.3   56.7   50.2   52.4  29.814  0.01  0.00   171     2.45    204     0.0  0.00   0.0   0.057   0.000   72.1    48   51.3   71.0   8.89  .0734    0.000   213    5    100.0   10 
10/16/19 11:50a   56.2   56.8   56.2    85   51.7  16.0   SSW   2.67  24.0     S   49.9   56.1   49.8   52.0  29.817  0.00  0.00   175     2.51    197     0.0  0.00   0.0   0.061   0.000   72.2    48   51.4   71.2   8.89  .0734    0.000   212    5    100.0   10 
10/16/19 12:00p   55.8   56.2   55.8    85   51.4  17.0   SSW   2.83  25.0   SSW   49.2   55.7   49.1   50.9  29.818  0.00  0.00   156     2.24    181     0.0  0.00   0.0   0.064   0.000   72.2    48   51.4   71.2   8.89  .0734    0.005   213    5    100.0   10 
10/16/19 12:10p   55.7   55.9   55.7    86   51.6  16.0   SSW   2.67  23.0   SSW   49.4   55.6   49.3   51.0  29.816  0.00  0.00   155     2.22    183     0.0  0.00   0.0   0.065   0.000   72.2    48   51.4   71.2   8.89  .0734    0.000   213    5    100.0   10 
10/16/19 12:20p   55.5   55.7   55.5    86   51.4  14.0   SSW   2.33  22.0   SSW   49.8   55.4   49.7   51.8  29.817  0.00  0.00   166     2.38    192     0.0  0.00   0.0   0.066   0.000   72.3    48   51.5   71.3   8.90  .0734    0.000   213    5    100.0   10 
10/16/19 12:30p   55.5   55.6   55.4    87   51.7  14.0   SSW   2.33  21.0   SSE   49.8   55.5   49.8   51.3  29.812  0.01  0.00   142     2.04    167     0.0  0.00   0.0   0.066   0.000   72.3    48   51.5   71.3   8.90  .0734    0.000   213    5    100.0   10 
10/16/19 12:40p   55.7   55.7   55.4    87   51.9  17.0   SSW   2.83  30.0   SSW   49.1   55.7   49.1   51.0  29.809  0.00  0.00   168     2.41    202     0.0  0.00   0.0   0.065   0.000   72.3    48   51.5   71.3   8.90  .0734    0.000   214    5    100.0   10 
10/16/19 12:50p   55.9   55.9   55.7    87   52.1  19.0   SSW   3.17  33.0     S   48.8   55.9   48.8   49.9  29.805  0.00  0.00   130     1.86    167     0.0  0.00   0.0   0.063   0.000   72.3    48   51.5   71.3   8.90  .0734    0.000   211    5    100.0   10 
10/16/19  1:00p   55.8   55.9   55.8    87   52.0  18.0   SSW   3.00  29.0     S   48.9   55.8   48.9   48.9  29.803  0.00  0.00    74     1.06    107     0.0  0.00   0.0   0.064   0.000   72.3    48   51.5   71.3   8.90  .0734    0.004   213    5    100.0   10 
10/16/19  1:10p   56.0   56.0   55.8    87   52.2  20.0   SSW   3.33  29.0   SSE   48.6   56.0   48.6   48.1  29.803  0.01  0.00    47     0.67     58     0.0  0.00   0.0   0.063   0.000   72.4    48   51.6   71.5   8.90  .0733    0.000   213    5    100.0   10 
10/16/19  1:20p   56.1   56.1   56.0    87   52.3  19.0   SSW   3.17  31.0   SSW   49.0   56.1   49.0   49.1  29.795  0.00  0.00    78     1.12     90     0.0  0.00   0.0   0.062   0.000   72.4    48   51.6   71.5   8.90  .0733    0.000   213    5    100.0   10 
10/16/19  1:30p   56.5   56.5   56.1    87   52.7  23.0   SSW   3.83  38.0     S   48.6   56.5   48.6   49.8  29.790  0.00  0.00   145     2.08    186     0.0  0.00   0.0   0.059   0.000   72.4    48   51.6   71.5   8.90  .0733    0.000   213    5    100.0   10 
10/16/19  1:40p   56.4   56.6   56.4    86   52.3  22.0   SSW   3.67  36.0   SSE   48.7   56.3   48.6   50.4  29.789  0.00  0.00   183     2.62    220     0.0  0.00   0.0   0.060   0.000   72.5    48   51.7   71.6   8.90  .0733    0.000   211    5    100.0   10 
10/16/19  1:50p   56.5   56.5   56.4    86   52.4  22.0   SSW   3.67  38.0     S   48.8   56.4   48.7   49.8  29.783  0.00  0.00   135     1.94    169     0.0  0.00   0.0   0.059   0.000   72.5    48   51.7   71.6   8.90  .0733    0.000   213    5    100.0   10 
10/16/19  2:00p   56.4   56.5   56.4    86   52.3  22.0   SSW   3.67  35.0    SW   48.7   56.3   48.6   49.5  29.783  0.00  0.00   125     1.79    139     0.0  0.00   0.0   0.060   0.000   72.5    48   51.7   71.6   8.90  .0733    0.004   212    5    100.0   10 
10/16/19  2:10p   56.5   56.5   56.4    86   52.4  20.0   SSW   3.33  37.0    SW   49.2   56.4   49.1   50.0  29.778  0.00  0.00   121     1.73    144     0.0  0.00   0.0   0.059   0.000   72.5    48   51.7   71.6   8.90  .0733    0.000   213    5    100.0   10 
10/16/19  2:20p   56.7   56.7   56.5    86   52.6  22.0   SSW   3.67  37.0    SW   49.0   56.6   48.9   49.6  29.784  0.00  0.00   115     1.65    139     0.0  0.00   0.0   0.058   0.000   72.5    48   51.7   71.6   8.90  .0733    0.000   212    5    100.0   10 
10/16/19  2:30p   56.9   56.9   56.7    85   52.4  22.0   SSW   3.67  38.0    SW   49.3   56.8   49.2   49.9  29.778  0.00  0.00   113     1.62    127     0.0  0.00   0.0   0.056   0.000   72.5    48   51.7   71.6   8.90  .0733    0.000   213    5    100.0   10 
10/16/19  2:40p   57.2   57.2   56.9    85   52.7  21.0   SSW   3.50  38.0    SW   49.8   57.1   49.7   50.1  29.776  0.00  0.00    92     1.32    111     0.0  0.00   0.0   0.054   0.000   72.5    48   51.7   71.6   8.90  .0733    0.000   214    5    100.0   10 
10/16/19  2:50p   57.2   57.2   57.1    85   52.7  19.0   SSW   3.17  33.0   SSW   50.2   57.1   50.1   50.7  29.768  0.00  0.00   100     1.43    149     0.0  0.00   0.0   0.054   0.000   72.5    48   51.7   71.6   8.90  .0732    0.000   211    5    100.0   10 
10/16/19  3:00p   57.3   57.3   57.1    85   52.8  20.0   SSW   3.33  36.0   SSW   50.1   57.2   50.0   50.6  29.764  0.00  0.00   100     1.43    146     0.0  0.00   0.0   0.053   0.000   72.6    49   52.3   71.9   9.05  .0732    0.004   211    5    100.0   10 
10/16/19  3:10p   57.4   57.5   57.3    84   52.6  18.0   SSW   3.00  31.0   SSW   50.7   57.3   50.6   50.5  29.765  0.00  0.00    64     0.92     74     0.0  0.00   0.0   0.053   0.000   72.5    49   52.2   71.7   9.05  .0732    0.000   211    5    100.0   10 
10/16/19  3:20p   57.5   57.5   57.4    84   52.7  18.0   SSW   3.00  33.0   SSW   50.8   57.4   50.7   51.0  29.751  0.00  0.00    79     1.13     97     0.0  0.00   0.0   0.052   0.000   72.5    49   52.2   71.7   9.05  .0732    0.000   211    5    100.0   10 
10/16/19  3:30p   57.2   57.5   57.2    84   52.4  19.0   SSW   3.17  31.0   SSE   50.2   57.1   50.1   49.8  29.755  0.00  0.00    50     0.72     65     0.0  0.00   0.0   0.054   0.000   72.5    49   52.2   71.7   9.05  .0732    0.000   212    5    100.0   10 
10/16/19  3:40p   56.4   57.3   56.4    85   51.9  19.0   SSW   3.17  29.0   SSW   49.3   56.3   49.2   48.7  29.760  0.01  0.00    39     0.56     58     0.0  0.00   0.0   0.060   0.000   72.5    49   52.2   71.7   9.05  .0732    0.000   214    5    100.0   10 
10/16/19  3:50p   55.9   56.5   55.9    86   51.8  19.0   SSW   3.17  29.0   SSW   48.8   55.8   48.7   48.1  29.767  0.02  0.13    36     0.52     49     0.0  0.00   0.0   0.063   0.000   72.5    49   52.2   71.7   9.05  .0732    0.000   212    5    100.0   10 
10/16/19  4:00p   55.7   56.0   55.7    86   51.6  19.0   SSW   3.17  28.0    SW   48.5   55.6   48.4   47.6  29.773  0.00  0.05    26     0.37     35     0.0  0.00   0.0   0.065   0.000   72.5    49   52.2   71.7   9.05  .0732    0.003   212    5    100.0   10 
10/16/19  4:10p   55.6   55.7   55.4    87   51.8  21.0   SSW   3.50  31.0   SSE   48.0   55.6   48.0   47.1  29.774  0.00  0.00    21     0.30     30     0.0  0.00   0.0   0.065   0.000   72.5    49   52.2   71.7   9.05  .0732    0.000   214    5    100.0   10 
10/16/19  4:20p   55.6   55.7   55.5    87   51.8  21.0   SSW   3.50  30.0     S   48.0   55.6   48.0   47.1  29.773  0.00  0.00    20     0.29     26     0.0  0.00   0.0   0.065   0.000   72.5    49   52.2   71.7   9.05  .0732    0.000   212    5    100.0   10 
10/16/19  4:30p   55.4   55.7   55.4    87   51.6  18.0   SSW   3.00  26.0    SW   48.4   55.4   48.4   47.5  29.772  0.00  0.00    21     0.30     28     0.0  0.00   0.0   0.067   0.000   72.6    50   52.9   71.9   9.25  .0732    0.000   210    5    100.0   10 
10/16/19  4:40p   55.5   55.5   55.4    87   51.7  17.0   SSW   2.83  25.0   SSW   48.8   55.5   48.8   47.7  29.776  0.00  0.00    16     0.23     19     0.0  0.00   0.0   0.066   0.000   72.6    49   52.3   71.9   9.05  .0732    0.000   213    5    100.0   10 
10/16/19  4:50p   55.4   55.5   55.4    87   51.6  15.0   SSW   2.50  24.0   SSE   49.3   55.4   49.3   48.3  29.782  0.00  0.00    17     0.24     19     0.0  0.00   0.0   0.067   0.000   72.7    50   53.0   72.1   9.25  .0732    0.000   211    5    100.0   10 
10/16/19  5:00p   55.7   55.7   55.4    88   52.2  14.0   SSW   2.33  22.0   SSE   50.0   55.7   50.0   49.2  29.787  0.00  0.00    25     0.36     28     0.0  0.00   0.0   0.065   0.000   72.7    50   53.0   72.1   9.25  .0732    0.002   212    5    100.0   10 
10/16/19  5:10p   55.8   55.8   55.7    88   52.3  13.0   SSW   2.17  26.0   SSE   50.5   55.8   50.5   49.6  29.780  0.00  0.00    22     0.32     25     0.0  0.00   0.0   0.064   0.000   72.7    49   52.4   72.0   9.05  .0732    0.000   214    5    100.0   10 
10/16/19  5:20p   56.0   56.0   55.8    87   52.2  13.0   SSW   2.17  20.0   SSW   50.7   56.0   50.7   49.7  29.778  0.00  0.00    19     0.27     23     0.0  0.00   0.0   0.063   0.000   72.7    50   53.0   72.1   9.25  .0732    0.000   210    5    100.0   10 
10/16/19  5:30p   55.8   56.0   55.7    87   52.0  12.0   SSW   2.00  19.0   SSE   51.0   55.8   51.0   49.9  29.778  0.00  0.00    15     0.22     18     0.0  0.00   0.0   0.064   0.000   72.7    49   52.4   72.0   9.05  .0732    0.000   212    5    100.0   10 
10/16/19  5:40p   56.0   56.0   55.7    87   52.2  13.0   SSW   2.17  21.0   SSW   50.7   56.0   50.7   50.1  29.776  0.00  0.00    29     0.42     37     0.0  0.00   0.0   0.063   0.000   72.7    49   52.4   72.0   9.05  .0732    0.000   214    5    100.0   10 
10/16/19  5:50p   55.8   56.1   55.8    87   52.0  13.0   SSW   2.17  23.0    SW   50.5   55.8   50.5   49.4  29.776  0.00  0.00    14     0.20     25     0.0  0.00   0.0   0.064   0.000   72.7    49   52.4   72.0   9.05  .0732    0.000   211    5    100.0   10 
10/16/19  6:00p   56.2   56.2   55.8    87   52.4  15.0   SSW   2.50  26.0   SSE   50.2   56.2   50.2   48.9  29.772  0.01  0.00     6     0.09      7     0.0  0.00   0.0   0.061   0.000   72.7    49   52.4   72.0   9.05  .0732    0.002   212    5    100.0   10 
10/16/19  6:10p   56.0   56.2   56.0    87   52.2  15.0   SSW   2.50  24.0   SSE   50.0   56.0   50.0   48.7  29.775  0.00  0.00     6     0.09      9     0.0  0.00   0.0   0.063   0.000   72.7    49   52.4   72.0   9.05  .0732    0.000   213    5    100.0   10 
10/16/19  6:20p   55.9   56.1   55.9    87   52.1  14.0   SSW   2.33  23.0     S   50.2   55.9   50.2   48.7  29.776  0.00  0.00     1     0.01      5     0.0  0.00   0.0   0.063   0.000   72.7    49   52.4   72.0   9.05  .0732    0.000   212    5    100.0   10 
10/16/19  6:30p   55.9   56.1   55.8    87   52.1  14.0   SSW   2.33  25.0    SW   50.2   55.9   50.2   48.4  29.777  0.00  0.00     0     0.00      0     0.0  0.00   0.0   0.063   0.000   72.7    49   52.4   72.0   9.05  .0732    0.000   214    5    100.0   10 
10/16/19  6:40p   56.1   56.1   56.0    87   52.3  15.0   SSW   2.50  24.0   SSW   50.1   56.1   50.1   48.4  29.771  0.00  0.00     0     0.00      0     0.0  0.00   0.0   0.062   0.000   72.7    49   52.4   72.0   9.05  .0732    0.000   213    5    100.0   10 
10/16/19  6:50p   56.5   56.5   56.0    87   52.7  16.0   SSW   2.67  27.0   SSW   50.3   56.5   50.3   48.6  29.770  0.00  0.00     0     0.00      0     0.0  0.00   0.0   0.059   0.000   72.7    49   52.4   72.0   9.05  .0732    0.000   212    5    100.0   10 
10/16/19  7:00p   56.6   56.7   56.5    87   52.8  15.0   SSW   2.50  26.0     S   50.7   56.6   50.7   49.0  29.769  0.00  0.00     0     0.00      0     0.0  0.00   0.0   0.058   0.000   72.7    49   52.4   72.0   9.05  .0732    0.001   214    5    100.0   10 
10/16/19  7:10p   56.6   56.7   56.6    86   52.5  16.0   SSW   2.67  24.0    SW   50.4   56.5   50.3   48.6  29.771  0.00  0.00     0     0.00      0     0.0  0.00   0.0   0.058   0.000   72.7    49   52.4   72.0   9.05  .0732    0.000   212    5    100.0   10 
10/16/19  7:20p   56.7   56.8   56.6    86   52.6  16.0   SSW   2.67  24.0     S   50.5   56.6   50.4   48.7  29.778  0.00  0.00     0     0.00      0     0.0  0.00   0.0   0.058   0.000   72.7    49   52.4   72.0   9.05  .0732    0.000   211    5    100.0   10 
10/16/19  7:30p   56.8   56.8   56.6    86   52.7  15.0   SSW   2.50  25.0   SSW   50.9   56.7   50.8   49.1  29.783  0.00  0.00     0     0.00      0     0.0  0.00   0.0   0.057   0.000   72.6    49   52.3   71.9   9.05  .0732    0.000   211    5    100.0   10 
10/16/19  7:40p   56.4   57.0   56.4    86   52.3  14.0   SSW   2.33  23.0   SSW   50.8   56.3   50.7   48.9  29.789  0.00  0.00     0     0.00      0     0.0  0.00   0.0   0.060   0.000   72.6    49   52.3   71.9   9.05  .0732    0.000   213    5    100.0   10 
10/16/19  7:50p   56.3   56.5   56.2    86   52.2  14.0   SSW   2.33  27.0   SSW   50.7   56.2   50.6   48.8  29.790  0.00  0.00     0     0.00      0     0.0  0.00   0.0   0.060   0.000   72.6    49   52.3   71.9   9.05  .0732    0.000   211    5    100.0   10 
10/16/19  8:00p   56.2   56.3   56.0    86   52.1  14.0   SSW   2.33  23.0   SSE   50.5   56.1   50.4   48.6  29.792  0.00  0.00     0     0.00      0     0.0  0.00   0.0   0.061   0.000   72.6    49   52.3   71.9   9.05  .0733    0.002   213    5    100.0   10 
10/16/19  8:10p   56.3   56.3   56.1    86   52.2  14.0   SSW   2.33  23.0     S   50.7   56.2   50.6   48.8  29.795  0.00  0.00     0     0.00      0     0.0  0.00   0.0   0.060   0.000   72.6    49   52.3   71.9   9.05  .0733    0.000   213    5    100.0   10 
10/16/19  8:20p   56.5   56.5   56.3    86   52.4  12.0   SSW   2.00  21.0   SSE   51.8   56.4   51.7   49.8  29.797  0.00  0.00     0     0.00      0     0.0  0.00   0.0   0.059   0.000   72.6    49   52.3   71.9   9.05  .0733    0.000   210    5    100.0   10 
10/16/19  8:30p   56.3   56.5   56.2    86   52.2  12.0   SSW   2.00  19.0   SSE   51.5   56.2   51.4   49.5  29.800  0.00  0.00     0     0.00      0     0.0  0.00   0.0   0.060   0.000   72.6    49   52.3   71.9   9.05  .0733    0.000   214    5    100.0   10 
10/16/19  8:40p   56.1   56.3   56.1    86   52.0  12.0   SSW   2.00  19.0     S   51.3   56.0   51.2   49.2  29.801  0.00  0.00     0     0.00      0     0.0  0.00   0.0   0.062   0.000   72.6    49   52.3   71.9   9.05  .0733    0.000   211    5    100.0   10 
10/16/19  8:50p   56.1   56.1   56.0    86   52.0  12.0   SSW   2.00  19.0   SSW   51.3   56.0   51.2   49.2  29.800  0.00  0.00     0     0.00      0     0.0  0.00   0.0   0.062   0.000   72.6    49   52.3   71.9   9.05  .0733    0.000   212    5    100.0   10 
10/16/19  9:00p   56.1   56.2   56.1    86   52.0  12.0   SSW   2.00  21.0    SW   51.3   56.0   51.2   49.2  29.802  0.00  0.00     0     0.00      0     0.0  0.00   0.0   0.062   0.000   72.6    49   52.3   71.9   9.05  .0733    0.001   213    5    100.0   10 
10/16/19  9:10p   56.3   56.3   56.1    86   52.2  10.0   SSW   1.67  17.0   SSE   52.7   56.2   52.6   50.6  29.804  0.00  0.00     0     0.00      0     0.0  0.00   0.0   0.060   0.000   72.6    49   52.3   71.9   9.05  .0733    0.000   212    5    100.0   10 
10/16/19  9:20p   56.3   56.4   56.3    86   52.2  10.0   SSW   1.67  17.0     S   52.7   56.2   52.6   50.6  29.800  0.00  0.00     0     0.00      0     0.0  0.00   0.0   0.060   0.000   72.5    49   52.2   71.7   9.05  .0733    0.000   212    5    100.0   10 
10/16/19  9:30p   55.9   56.3   55.9    86   51.8  11.0   SSW   1.83  19.0   SSW   51.6   55.8   51.5   49.5  29.802  0.00  0.00     0     0.00      0     0.0  0.00   0.0   0.063   0.000   72.5    49   52.2   71.7   9.05  .0733    0.000   213    5    100.0   10 
10/16/19  9:40p   56.3   56.4   55.9    86   52.2  11.0   SSW   1.83  19.0     S   52.1   56.2   52.0   50.0  29.803  0.00  0.00     0     0.00      0     0.0  0.00   0.0   0.060   0.000   72.5    49   52.2   71.7   9.05  .0733    0.000   212    5    100.0   10 
10/16/19  9:50p   56.1   56.4   56.1    86   52.0  11.0   SSW   1.83  17.0     S   51.8   56.0   51.7   49.7  29.800  0.00  0.00     0     0.00      0     0.0  0.00   0.0   0.062   0.000   72.5    49   52.2   71.7   9.05  .0733    0.000   211    5    100.0   10 
10/16/19 10:00p   56.1   56.2   56.0    86   52.0  10.0   SSW   1.67  17.0     S   52.4   56.0   52.3   50.2  29.802  0.00  0.00     0     0.00      0     0.0  0.00   0.0   0.062   0.000   72.5    49   52.2   71.7   9.05  .0733    0.001   214    5    100.0   10 
10/16/19 10:10p   56.1   56.2   56.0    87   52.3   9.0   SSW   1.50  17.0     S   53.1   56.1   53.1   51.0  29.801  0.00  0.00     0     0.00      0     0.0  0.00   0.0   0.062   0.000   72.5    49   52.2   71.7   9.05  .0733    0.000   213    5    100.0   10 
10/16/19 10:20p   56.0   56.2   56.0    86   51.9  10.0   SSW   1.67  16.0   SSW   52.3   55.9   52.2   50.1  29.801  0.00  0.00     0     0.00      0     0.0  0.00   0.0   0.063   0.000   72.5    49   52.2   71.7   9.05  .0733    0.000   213    5    100.0   10 
10/16/19 10:30p   56.0   56.1   56.0    86   51.9  10.0   SSW   1.67  20.0    SW   52.3   55.9   52.2   50.1  29.802  0.00  0.00     0     0.00      0     0.0  0.00   0.0   0.063   0.000   72.5    49   52.2   71.7   9.05  .0733    0.000   213    5    100.0   10 
10/16/19 10:40p   55.9   56.0   55.8    86   51.8  11.0   SSW   1.83  17.0   SSW   51.6   55.8   51.5   49.5  29.802  0.00  0.00     0     0.00      0     0.0  0.00   0.0   0.063   0.000   72.5    49   52.2   71.7   9.05  .0733    0.000   212    5    100.0   10 
10/16/19 10:50p   55.9   56.0   55.9    86   51.8  10.0   SSW   1.67  16.0   SSW   52.2   55.8   52.1   50.0  29.804  0.00  0.00     0     0.00      0     0.0  0.00   0.0   0.063   0.000   72.5    49   52.2   71.7   9.05  .0733    0.000   213    5    100.0   10 
10/16/19 11:00p   56.0   56.0   55.9    86   51.9   9.0   SSW   1.50  16.0     S   53.0   55.9   52.9   50.7  29.808  0.00  0.00     0     0.00      0     0.0  0.00   0.0   0.063   0.000   72.5    49   52.2   71.7   9.05  .0733    0.001   212    5    100.0   10 
10/16/19 11:10p   55.8   56.0   55.8    86   51.7   8.0   SSW   1.33  15.0     W   53.5   55.7   53.4   51.1  29.808  0.00  0.00     0     0.00      0     0.0  0.00   0.0   0.064   0.000   72.5    49   52.2   71.7   9.05  .0733    0.000   212    5    100.0   10 
10/16/19 11:20p   55.9   55.9   55.8    86   51.8   7.0   SSW   1.17  12.0   SSW   54.3   55.8   54.2   51.8  29.806  0.00  0.00     0     0.00      0     0.0  0.00   0.0   0.063   0.000   72.4    49   52.2   71.6   9.05  .0733    0.000   212    5    100.0   10 
10/16/19 11:30p   56.0   56.1   55.9    85   51.6   7.0   SSW   1.17  15.0     S   54.4   55.9   54.3   51.9  29.810  0.00  0.00     0     0.00      0     0.0  0.00   0.0   0.063   0.000   72.4    49   52.2   71.6   9.05  .0733    0.000   212    5    100.0   10 
10/16/19 11:40p   56.0   56.0   56.0    85   51.6   6.0   SSW   1.00  11.0     S   54.8   55.9   54.7   52.3  29.810  0.00  0.00     0     0.00      0     0.0  0.00   0.0   0.063   0.000   72.4    49   52.2   71.6   9.05  .0733    0.000   213    5    100.0   10 
10/16/19 11:50p   56.0   56.1   56.0    84   51.2   7.0   SSW   1.17  11.0    SW   54.4   55.9   54.3   51.9  29.811  0.00  0.00     0     0.00      0     0.0  0.00   0.0   0.063   0.000   72.4    49   52.2   71.6   9.05  .0733    0.000   212    5    100.0   10 
10/17/19 12:00a   56.0   56.0   55.9    84   51.2   7.0   SSW   1.17  11.0    SW   54.4   55.9   54.3   51.9  29.814  0.00  0.00     0     0.00      0     0.0  0.00   0.0   0.063   0.000   72.3    49   52.1   71.4   9.05  .0734    0.001   214    5    100.0   10 
10/17/19 12:10a   55.9   56.0   55.9    84   51.1   7.0   SSW   1.17  11.0     S   54.3   55.8   54.2   51.8  29.815  0.00  0.00     0     0.00      0     0.0  0.00   0.0   0.063   0.000   72.3    49   52.1   71.4   9.05  .0734    0.000   211    5    100.0   10 
10/17/19 12:20a   55.9   56.0   55.9    84   51.1   7.0   SSW   1.17  13.0    SW   54.3   55.8   54.2   51.8  29.814  0.00  0.00     0     0.00      0     0.0  0.00   0.0   0.063   0.000   72.3    49   52.1   71.4   9.05  .0734    0.000   213    5    100.0   10 
10/17/19 12:30a   56.0   56.0   55.9    85   51.6   8.0   SSW   1.33  14.0   SSW   53.7   55.9   53.6   51.3  29.814  0.00  0.00     0     0.00      0     0.0  0.00   0.0   0.063   0.000   72.3    49   52.1   71.4   9.05  .0734    0.000   212    5    100.0   10 
10/17/19 12:40a   56.0   56.1   56.0    85   51.6   9.0   SSW   1.50  16.0     S   53.0   55.9   52.9   50.7  29.813  0.00  0.00     0     0.00      0     0.0  0.00   0.0   0.063   0.000   72.3    49   52.1   71.4   9.05  .0734    0.000   213    5    100.0   10 
10/17/19 12:50a   56.1   56.2   56.0    85   51.7  10.0   SSW   1.67  19.0     S   52.4   56.0   52.3   50.2  29.813  0.00  0.00     0     0.00      0     0.0  0.00   0.0   0.062   0.000   72.3    49   52.1   71.4   9.05  .0734    0.000   211    5    100.0   10 
10/17/19  1:00a   56.2   56.2   56.1    85   51.7  10.0   SSW   1.67  18.0   SSE   52.5   56.1   52.4   50.3  29.815  0.00  0.00     0     0.00      0     0.0  0.00   0.0   0.061   0.000   72.3    49   52.1   71.4   9.05  .0734    0.001   210    5    100.0   10 
10/17/19  1:10a   55.9   56.2   55.9    84   51.1   9.0   SSW   1.50  15.0    SW   52.9   55.8   52.8   50.6  29.816  0.00  0.00     0     0.00      0     0.0  0.00   0.0   0.063   0.000   72.4    49   52.2   71.6   9.05  .0733    0.000   213    5    100.0   10 
10/17/19  1:20a   55.8   55.9   55.8    84   51.0   9.0   SSW   1.50  17.0    SW   52.8   55.7   52.7   50.5  29.816  0.00  0.00     0     0.00      0     0.0  0.00   0.0   0.064   0.000   72.4    49   52.2   71.6   9.05  .0733    0.000   213    5    100.0   10 
10/17/19  1:30a   55.8   55.8   55.8    84   51.0   8.0   SSW   1.33  14.0   SSW   53.5   55.7   53.4   51.1  29.818  0.00  0.00     0     0.00      0     0.0  0.00   0.0   0.064   0.000   72.4    49   52.2   71.6   9.05  .0734    0.000   213    5    100.0   10 
10/17/19  1:40a   55.8   55.9   55.8    84   51.0   8.0   SSW   1.33  17.0   SSE   53.5   55.7   53.4   51.1  29.818  0.00  0.00     0     0.00      0     0.0  0.00   0.0   0.064   0.000   72.4    49   52.2   71.6   9.05  .0734    0.000   212    5    100.0   10 
10/17/19  1:50a   55.6   55.8   55.6    83   50.5   7.0   SSW   1.17  12.0   SSW   53.9   55.4   53.7   51.3  29.818  0.00  0.00     0     0.00      0     0.0  0.00   0.0   0.065   0.000   72.4    49   52.2   71.6   9.05  .0734    0.000   214    5    100.0   10 
10/17/19  2:00a   55.8   55.8   55.6    83   50.7   7.0   SSW   1.17  13.0     S   54.2   55.6   54.0   51.6  29.817  0.00  0.00     0     0.00      0     0.0  0.00   0.0   0.064   0.000   72.4    49   52.2   71.6   9.05  .0733    0.001   211    5    100.0   10 
10/17/19  2:10a   56.0   56.0   55.8    83   50.9   9.0   SSW   1.50  16.0   SSW   53.0   55.8   52.8   50.6  29.817  0.00  0.00     0     0.00      0     0.0  0.00   0.0   0.063   0.000   72.4    49   52.2   71.6   9.05  .0733    0.000   212    5    100.0   10 
10/17/19  2:20a   55.9   56.0   55.9    83   50.8   8.0   SSW   1.33  17.0    SW   53.6   55.7   53.4   51.1  29.820  0.00  0.00     0     0.00      0     0.0  0.00   0.0   0.063   0.000   72.4    49   52.2   71.6   9.05  .0734    0.000   213    5    100.0   10 
10/17/19  2:30a   56.0   56.0   55.9    83   50.9   9.0   SSW   1.50  17.0     S   53.0   55.8   52.8   50.6  29.818  0.00  0.00     0     0.00      0     0.0  0.00   0.0   0.063   0.000   72.4    49   52.2   71.6   9.05  .0734    0.000   210    5    100.0   10 
10/17/19  2:40a   55.8   56.0   55.8    83   50.7  10.0   SSW   1.67  20.0     S   52.1   55.6   51.9   49.8  29.818  0.00  0.00     0     0.00      0     0.0  0.00   0.0   0.064   0.000   72.4    49   52.2   71.6   9.05  .0734    0.000   212    5    100.0   10 
10/17/19  2:50a   55.7   55.8   55.7    83   50.6  10.0   SSW   1.67  21.0    SW   51.9   55.5   51.7   49.6  29.817  0.00  0.00     0     0.00      0     0.0  0.00   0.0   0.065   0.000   72.4    49   52.2   71.6   9.05  .0733    0.000   213    5    100.0   10 
10/17/19  3:00a   55.6   55.7   55.5    84   50.8   8.0   SSW   1.33  15.0    SW   53.2   55.5   53.1   50.8  29.813  0.00  0.00     0     0.00      0     0.0  0.00   0.0   0.065   0.000   72.4    49   52.2   71.6   9.05  .0733    0.001   213    5    100.0   10 
10/17/19  3:10a   55.7   55.7   55.6    83   50.6   8.0   SSW   1.33  15.0   SSW   53.3   55.5   53.1   50.8  29.810  0.00  0.00     0     0.00      0     0.0  0.00   0.0   0.065   0.000   72.4    49   52.2   71.6   9.05  .0733    0.000   213    5    100.0   10 
10/17/19  3:20a   55.7   55.7   55.7    83   50.6   7.0   SSW   1.17  16.0     S   54.0   55.5   53.8   51.4  29.808  0.00  0.00     0     0.00      0     0.0  0.00   0.0   0.065   0.000   72.4    49   52.2   71.6   9.05  .0733    0.000   212    5    100.0   10 
10/17/19  3:30a   55.7   55.7   55.7    83   50.6   8.0   SSW   1.33  15.0     S   53.3   55.5   53.1   50.8  29.806  0.00  0.00     0     0.00      0     0.0  0.00   0.0   0.065   0.000   72.4    49   52.2   71.6   9.05  .0733    0.000   212    5    100.0   10 
10/17/19  3:40a   55.8   55.8   55.7    83   50.7   7.0   SSW   1.17  17.0   SSW   54.2   55.6   54.0   51.6  29.805  0.00  0.00     0     0.00      0     0.0  0.00   0.0   0.064   0.000   72.4    49   52.2   71.6   9.05  .0733    0.000   213    5    100.0   10 
10/17/19  3:50a   55.9   55.9   55.7    83   50.8   9.0   SSW   1.50  16.0   SSW   52.9   55.7   52.7   50.5  29.805  0.00  0.00     0     0.00      0     0.0  0.00   0.0   0.063   0.000   72.5    49   52.2   71.7   9.05  .0733    0.000   214    5    100.0   10 
10/17/19  4:00a   55.9   56.0   55.9    83   50.8  10.0   SSW   1.67  17.0     S   52.2   55.7   52.0   49.9  29.801  0.00  0.00     0     0.00      0     0.0  0.00   0.0   0.063   0.000   72.4    49   52.2   71.6   9.05  .0733    0.001   212    5    100.0   10 
10/17/19  4:10a   55.9   56.0   55.9    83   50.8  10.0   SSW   1.67  17.0   SSW   52.2   55.7   52.0   49.9  29.801  0.00  0.00     0     0.00      0     0.0  0.00   0.0   0.063   0.000   72.5    49   52.2   71.7   9.05  .0733    0.000   212    5    100.0   10 
10/17/19  4:20a   56.1   56.1   55.9    82   50.7  11.0   SSW   1.83  23.0    SW   51.8   55.9   51.6   49.6  29.800  0.00  0.00     0     0.00      0     0.0  0.00   0.0   0.062   0.000   72.5    49   52.2   71.7   9.05  .0733    0.000   213    5    100.0   10 
10/17/19  4:30a   56.0   56.1   56.0    82   50.6  13.0   SSW   2.17  20.0    SW   50.7   55.8   50.5   48.6  29.800  0.00  0.00     0     0.00      0     0.0  0.00   0.0   0.063   0.000   72.5    49   52.2   71.7   9.05  .0733    0.000   212    5    100.0   10 
10/17/19  4:40a   55.4   56.0   55.4    83   50.3  15.0   SSW   2.50  26.0   SSE   49.3   55.2   49.1   47.3  29.804  0.00  0.00     0     0.00      0     0.0  0.00   0.0   0.067   0.000   72.5    49   52.2   71.7   9.05  .0733    0.000   213    5    100.0   10 
10/17/19  4:50a   55.2   55.4   55.2    84   50.4  14.0   SSW   2.33  23.0    SW   49.4   55.1   49.3   47.5  29.805  0.00  0.00     0     0.00      0     0.0  0.00   0.0   0.068   0.000   72.5    49   52.2   71.7   9.05  .0733    0.000   211    5    100.0   10 
10/17/19  5:00a   55.1   55.2   55.1    84   50.4  15.0   SSW   2.50  25.0   SSW   49.0   55.0   48.9   47.1  29.804  0.00  0.00     0     0.00      0     0.0  0.00   0.0   0.069   0.000   72.5    49   52.2   71.7   9.05  .0733    0.002   211    5    100.0   10 
10/17/19  5:10a   54.9   55.1   54.9    84   50.2  14.0   SSW   2.33  23.0   SSE   49.1   54.8   49.0   47.2  29.804  0.00  0.00     0     0.00      0     0.0  0.00   0.0   0.070   0.000   72.5    49   52.2   71.7   9.05  .0733    0.000   213    5    100.0   10 
10/17/19  5:20a   54.9   54.9   54.9    85   50.5  12.0   SSW   2.00  20.0   SSW   49.9   54.8   49.8   47.8  29.808  0.00  0.00     0     0.00      0     0.0  0.00   0.0   0.070   0.000   72.5    49   52.2   71.7   9.05  .0733    0.000   212    5    100.0   10 
10/17/19  5:30a   54.1   54.9   54.1    84   49.4  14.0   SSW   2.33  21.0   SSE   48.2   54.0   48.1   46.3  29.811  0.01  0.00     0     0.00      0     0.0  0.00   0.0   0.076   0.000   72.5    49   52.2   71.7   9.05  .0733    0.000   211    5    100.0   10 
10/17/19  5:40a   54.4   54.5   53.8    85   50.0  10.0   SSW   1.67  22.0     S   50.4   54.3   50.3   48.2  29.805  0.04  0.62     0     0.00      0     0.0  0.00   0.0   0.074   0.000   72.5    49   52.2   71.7   9.05  .0733    0.000   211    5    100.0   10 
10/17/19  5:50a   54.1   54.5   54.1    85   49.7   8.0   SSW   1.33  15.0   SSE   51.4   54.0   51.3   49.0  29.802  0.00  0.06     0     0.00      0     0.0  0.00   0.0   0.076   0.000   72.5    49   52.2   71.7   9.05  .0733    0.000   214    5    100.0   10 
10/17/19  6:00a   54.1   54.2   54.0    84   49.4   8.0   SSW   1.33  15.0   SSW   51.4   54.0   51.3   49.0  29.803  0.00  0.00     0     0.00      0     0.0  0.00   0.0   0.076   0.000   72.5    49   52.2   71.7   9.05  .0733    0.001   211    5    100.0   10 
10/17/19  6:10a   54.8   54.8   54.2    84   50.1  10.0   SSW   1.67  19.0     S   50.9   54.7   50.8   48.7  29.801  0.00  0.00     0     0.00      0     0.0  0.00   0.0   0.071   0.000   72.5    49   52.2   71.7   9.05  .0733    0.000   213    5    100.0   10 
10/17/19  6:20a   55.0   55.0   54.8    83   49.9   9.0   SSW   1.50  18.0   SSW   51.8   54.8   51.6   49.4  29.800  0.00  0.00     0     0.00      0     0.0  0.00   0.0   0.069   0.000   72.4    49   52.2   71.6   9.05  .0733    0.000   214    5    100.0   10 
10/17/19  6:30a   55.0   55.1   55.0    83   49.9  11.0   SSW   1.83  17.0   SSW   50.6   54.8   50.4   48.4  29.802  0.00  0.00     0     0.00      0     0.0  0.00   0.0   0.069   0.000   72.4    49   52.2   71.6   9.05  .0733    0.000   212    5    100.0   10 
10/17/19  6:40a   54.9   55.0   54.9    83   49.8  10.0   SSW   1.67  20.0     S   51.0   54.7   50.8   48.7  29.804  0.00  0.00     0     0.00      0     0.0  0.00   0.0   0.070   0.000   72.5    49   52.2   71.7   9.05  .0733    0.000   213    5    100.0   10 
10/17/19  6:50a   54.9   54.9   54.8    83   49.8  10.0   SSW   1.67  17.0     S   51.0   54.7   50.8   48.7  29.806  0.00  0.00     0     0.00      0     0.0  0.00   0.0   0.070   0.000   72.5    49   52.2   71.7   9.05  .0733    0.000   213    5    100.0   10 
10/17/19  7:00a   54.7   54.9   54.7    82   49.3  10.0   SSW   1.67  20.0    SW   50.8   54.5   50.6   48.5  29.806  0.00  0.00     0     0.00      0     0.0  0.00   0.0   0.072   0.000   72.5    49   52.2   71.7   9.05  .0733    0.001   212    5    100.0   10 
10/17/19  7:10a   54.6   54.7   54.6    82   49.2  10.0   SSW   1.67  18.0   SSE   50.7   54.4   50.5   48.4  29.806  0.00  0.00     0     0.00      0     0.0  0.00   0.0   0.072   0.000   72.5    49   52.2   71.7   9.05  .0733    0.000   213    5    100.0   10 
10/17/19  7:20a   54.6   54.7   54.6    82   49.2  11.0   SSW   1.83  20.0     S   50.1   54.4   49.9   47.9  29.804  0.00  0.00     0     0.00      0     0.0  0.00   0.0   0.072   0.000   72.5    49   52.2   71.7   9.05  .0733    0.000   211    5    100.0   10 
10/17/19  7:30a   54.5   54.6   54.5    82   49.1   9.0   SSW   1.50  20.0   SSE   51.2   54.3   51.0   48.8  29.803  0.00  0.00     0     0.00      0     0.0  0.00   0.0   0.073   0.000   72.5    49   52.2   71.7   9.05  .0733    0.000   213    5    100.0   10 
10/17/19  7:40a   54.6   54.6   54.5    82   49.2  10.0   SSW   1.67  21.0   WSW   50.7   54.4   50.5   48.5  29.806  0.00  0.00     4     0.06      5     0.0  0.00   0.0   0.072   0.000   72.5    49   52.2   71.7   9.05  .0733    0.000   212    5    100.0   10 
10/17/19  7:50a   54.6   54.6   54.6    82   49.2   9.0   SSW   1.50  14.0   SSW   51.3   54.4   51.1   49.1  29.803  0.00  0.00    11     0.16     18     0.0  0.00   0.0   0.072   0.000   72.6    49   52.3   71.9   9.05  .0733    0.000   213    5    100.0   10 
10/17/19  8:00a   54.4   54.6   54.4    82   49.0  10.0   SSW   1.67  19.0    SW   50.4   54.2   50.2   48.8  29.809  0.00  0.00    35     0.50     51     0.0  0.00   0.0   0.074   0.000   72.6    49   52.3   71.9   9.05  .0733    0.001   212    5    100.0   10 
10/17/19  8:10a   54.1   54.4   54.1    82   48.7  10.0   SSW   1.67  19.0     S   50.1   53.9   49.9   48.3  29.813  0.00  0.00    27     0.39     46     0.0  0.00   0.0   0.076   0.000   72.5    49   52.2   71.7   9.05  .0733    0.000   211    5    100.0   10 
10/17/19  8:20a   53.9   54.1   53.9    82   48.5   9.0   SSW   1.50  18.0   SSE   50.5   53.7   50.3   48.0  29.826  0.01  0.10     1     0.01      5     0.0  0.00   0.0   0.077   0.000   72.6    49   52.3   71.9   9.05  .0733    0.000   212    5    100.0   10 
10/17/19  8:30a   53.7   53.9   53.7    83   48.7   8.0   SSW   1.33  23.0   SSW   50.9   53.5   50.7   48.6  29.830  0.04  0.30     0     0.00      0     0.0  0.00   0.0   0.078   0.000   72.5    49   52.2   71.7   9.05  .0734    0.000   211    5    100.0   10 
10/17/19  8:40a   53.5   53.7   53.5    83   48.5  10.0   SSW   1.67  24.0    SW   49.4   53.3   49.2   47.6  29.827  0.01  0.16     8     0.11     11     0.0  0.00   0.0   0.080   0.000   72.5    49   52.2   71.7   9.05  .0734    0.000   214    5    100.0   10 
10/17/19  8:50a   53.4   53.6   53.4    84   48.7  14.0   SSW   2.33  27.0   SSE   47.4   53.3   47.3   46.6  29.837  0.01  0.09    25     0.36     35     0.0  0.00   0.0   0.081   0.000   72.5    49   52.2   71.7   9.05  .0734    0.000   212    5    100.0   10 
10/17/19  9:00a   53.3   53.4   53.2    84   48.6   8.0   SSW   1.33  16.0     S   50.5   53.2   50.4   50.7  29.840  0.00  0.00    51     0.73     86     0.0  0.00   0.0   0.081   0.000   72.5    49   52.2   71.7   9.05  .0734    0.002   213    5    100.0   10 
10/17/19  9:10a   53.8   53.8   53.3    84   49.1   8.0   SSW   1.33  14.0     S   51.1   53.7   51.0   52.8  29.844  0.00  0.00    91     1.30    132     0.0  0.00   0.0   0.078   0.000   72.6    49   52.3   71.9   9.05  .0734    0.000   214    5    100.0   10 
10/17/19  9:20a   53.6   53.8   53.6    83   48.6   7.0   SSW   1.17  14.0     S   51.5   53.4   51.3   52.1  29.851  0.00  0.00    67     0.96     83     0.0  0.00   0.0   0.079   0.000   72.6    49   52.3   71.9   9.05  .0734    0.000   213    5    100.0   10 
10/17/19  9:30a   53.9   53.9   53.6    84   49.2   8.0   SSW   1.33  15.0   SSE   51.2   53.8   51.1   53.3  29.850  0.00  0.00   107     1.53    118     0.0  0.00   0.0   0.077   0.000   72.6    49   52.3   71.9   9.05  .0734    0.000   211    5    100.0   10 
10/17/19  9:40a   53.6   54.0   53.5    84   48.9   9.0   SSW   1.50  18.0    SW   50.1   53.5   50.0   52.4  29.849  0.00  0.00   119     1.71    183     0.0  0.00   0.0   0.079   0.000   72.7    49   52.4   72.0   9.05  .0734    0.000   213    5    100.0   10 
10/17/19  9:50a   53.7   53.7   53.5    83   48.7   8.0   SSW   1.33  13.0     S   50.9   53.5   50.7   52.4  29.851  0.00  0.00   101     1.45    141     0.0  0.00   0.0   0.078   0.000   72.7    49   52.4   72.0   9.05  .0734    0.000   212    5    100.0   10 
10/17/19 10:00a   54.1   54.1   53.7    83   49.1   8.0   SSW   1.33  17.0     S   51.4   53.9   51.2   56.3  29.854  0.00  0.00   211     3.02    350     0.0  0.00   0.0   0.076   0.000   72.7    49   52.4   72.0   9.05  .0734    0.003   212    5    100.0   10 
10/17/19 10:10a   54.4   54.4   54.1    83   49.3   8.0   SSW   1.33  16.0     S   51.8   54.2   51.6   55.6  29.857  0.00  0.00   180     2.58    308     0.0  0.00   0.0   0.074   0.000   72.7    49   52.4   72.0   9.05  .0734    0.000   212    5    100.0   10 
10/17/19 10:20a   54.5   54.5   54.4    83   49.4   8.0   SSW   1.33  14.0   SSE   51.9   54.3   51.7   53.7  29.859  0.00  0.00   117     1.68    188     0.0  0.00   0.0   0.073   0.000   72.7    49   52.4   72.0   9.05  .0734    0.000   212    5    100.0   10 
10/17/19 10:30a   54.7   54.7   54.5    83   49.6  10.0   SSW   1.67  24.0    SW   50.8   54.5   50.6   52.7  29.858  0.00  0.00   129     1.85    165     0.0  0.00   0.0   0.072   0.000   72.7    49   52.4   72.0   9.05  .0734    0.000   211    5    100.0   10 
10/17/19 10:40a   55.2   55.2   54.7    83   50.1  10.0   SSW   1.67  20.0     S   51.3   55.0   51.1   54.5  29.861  0.00  0.00   183     2.62    302     0.0  0.00   0.0   0.068   0.000   72.7    49   52.4   72.0   9.05  .0734    0.000   213    5    100.0   10 
10/17/19 10:50a   55.3   55.3   55.1    84   50.5  13.0   SSW   2.17  27.0   SSW   49.9   55.2   49.8   51.2  29.860  0.00  0.00   116     1.66    213     0.0  0.00   0.0   0.067   0.000   72.8    49   52.5   72.1   9.05  .0734    0.000   213    5    100.0   10 
10/17/19 11:00a   55.8   55.8   55.3    84   51.0  15.0   SSW   2.50  28.0   SSW   49.8   55.7   49.7   55.7  29.861  0.00  0.00   358     5.13    650     0.0  0.00   0.0   0.064   0.000   72.8    49   52.5   72.1   9.05  .0734    0.005   209    5    100.0   10 
10/17/19 11:10a   55.8   55.8   55.7    84   51.0  16.0   SSW   2.67  26.0    SW   49.5   55.7   49.4   55.5  29.862  0.00  0.00   382     5.48    517     0.0  0.00   0.0   0.064   0.000   72.8    49   52.5   72.1   9.05  .0734    0.000   212    5    100.0   10 
10/17/19 11:20a   55.9   55.9   55.7    84   51.1  15.0   SSW   2.50  26.0   SSW   49.9   55.8   49.8   55.1  29.860  0.00  0.00   326     4.67    594     0.0  0.00   0.0   0.063   0.000   72.9    49   52.6   72.3   9.05  .0734    0.000   213    5    100.0   10 
10/17/19 11:30a   56.2   56.2   55.9    84   51.4  16.0   SSW   2.67  26.0     S   49.9   56.1   49.8   57.1  29.863  0.00  0.00   505     7.24    534     0.0  0.00   0.0   0.061   0.000   72.9    49   52.6   72.3   9.05  .0734    0.000   213    5    100.0   10 
10/17/19 11:40a   56.4   56.4   56.1    84   51.6  15.0   SSW   2.50  24.0    SW   50.4   56.3   50.3   58.0  29.860  0.00  0.00   548     7.86    582     0.0  0.00   0.0   0.060   0.000   72.9    49   52.6   72.3   9.05  .0734    0.000   212    5    100.0   10 
10/17/19 11:50a   56.4   56.4   56.3    84   51.6  15.0   SSW   2.50  25.0     S   50.4   56.3   50.3   58.0  29.867  0.00  0.00   575     8.24    629     0.0  0.00   0.0   0.060   0.000   73.0    49   52.7   72.4   9.05  .0734    0.000   211    5    100.0   10 
10/17/19 12:00p   56.4   56.5   56.3    84   51.6  16.0   SSW   2.67  29.0   SSE   50.1   56.3   50.0   57.5  29.872  0.00  0.00   585     8.39    694     0.0  0.00   0.0   0.060   0.000   73.0    49   52.7   72.4   9.05  .0734    0.011   213    5    100.0   10 
10/17/19 12:10p   56.3   56.6   56.3    83   51.2  15.0   SSW   2.50  27.0   SSW   50.3   56.1   50.1   57.9  29.872  0.00  0.00   570     8.17    575     0.0  0.00   0.0   0.060   0.000   73.0    49   52.7   72.4   9.05  .0734    0.000   211    5    100.0   10 
10/17/19 12:20p   55.9   56.3   55.9    84   51.1  15.0   SSW   2.50  27.0     S   49.9   55.8   49.8   54.2  29.875  0.00  0.00   297     4.26    635     0.0  0.00   0.0   0.063   0.000   73.1    49   52.8   72.5   9.05  .0734    0.000   212    5    100.0   10 
10/17/19 12:30p   56.4   56.4   55.9    84   51.6  16.0   SSW   2.67  25.0   SSW   50.1   56.3   50.0   57.2  29.876  0.00  0.00   532     7.63    729     0.0  0.00   0.0   0.060   0.000   73.1    49   52.8   72.5   9.05  .0734    0.000   213    5    100.0   10 
10/17/19 12:40p   57.1   57.1   56.4    84   52.3  16.0   SSW   2.67  25.0   SSW   50.9   57.0   50.8   58.4  29.872  0.00  0.00   609     8.73    745     0.0  0.00   0.0   0.055   0.000   73.1    49   52.8   72.5   9.05  .0734    0.000   212    5    100.0   10 
10/17/19 12:50p   56.9   57.2   56.7    83   51.8  17.0   SSW   2.83  26.0    SW   50.4   56.7   50.2   56.0  29.872  0.00  0.00   425     6.09    624     0.0  0.00   0.0   0.056   0.000   73.1    49   52.8   72.5   9.05  .0734    0.000   211    5    100.0   10 
10/17/19  1:00p   57.3   57.3   56.9    83   52.2  16.0   SSW   2.67  24.0   SSW   51.2   57.1   51.0   56.4  29.872  0.00  0.00   373     5.35    721     0.0  0.00   0.0   0.053   0.000   73.2    49   52.9   72.7   9.05  .0733    0.011   213    5    100.0   10 
10/17/19  1:10p   56.8   57.4   56.8    83   51.7  16.0   SSW   2.67  25.0    SW   50.6   56.6   50.4   57.9  29.877  0.00  0.00   593     8.50    679     0.0  0.00   0.0   0.057   0.000   73.2    49   52.9   72.7   9.05  .0734    0.000   213    5    100.0   10 
10/17/19  1:20p   57.1   57.1   56.8    83   52.0  16.0   SSW   2.67  30.0   SSW   50.9   56.9   50.7   58.2  29.879  0.00  0.00   577     8.27    628     0.0  0.00   0.0   0.055   0.000   73.2    49   52.9   72.7   9.05  .0734    0.000   211    5    100.0   10 
10/17/19  1:30p   57.3   57.3   57.1    83   52.2  17.0   SSW   2.83  27.0   SSE   50.9   57.1   50.7   58.0  29.876  0.00  0.00   580     8.31    612     0.0  0.00   0.0   0.053   0.000   73.2    49   52.9   72.7   9.05  .0734    0.000   213    5    100.0   10 
10/17/19  1:40p   57.3   57.4   57.2    82   51.9  17.0   SSW   2.83  29.0    SW   50.9   57.1   50.7   57.9  29.875  0.00  0.00   564     8.09    578     0.0  0.00   0.0   0.053   0.000   73.2    49   52.9   72.7   9.05  .0734    0.000   212    5    100.0   10 
10/17/19  1:50p   57.5   57.5   57.2    82   52.0  18.0   SSW   3.00  29.0    SW   50.8   57.3   50.6   57.2  29.875  0.00  0.00   503     7.21    606     0.0  0.00   0.0   0.052   0.000   73.3    49   53.0   72.8   9.05  .0733    0.000   212    5    100.0   10 
10/17/19  2:00p   57.0   57.5   57.0    82   51.6  17.0   SSW   2.83  32.0   SSE   50.5   56.8   50.3   53.6  29.874  0.00  0.00   251     3.60    294     0.0  0.00   0.0   0.056   0.000   73.3    49   53.0   72.8   9.05  .0733    0.012   212    5    100.0   10 
10/17/19  2:10p   56.8   57.0   56.8    82   51.4  16.0   SSW   2.67  26.0   SSW   50.6   56.6   50.4   54.2  29.871  0.00  0.00   275     3.94    315     0.0  0.00   0.0   0.057   0.000   73.3    49   53.0   72.8   9.05  .0733    0.000   210    5    100.0   10 
10/17/19  2:20p   57.1   57.1   56.8    82   51.7  16.0   SSW   2.67  26.0   SSE   50.9   56.9   50.7   55.3  29.864  0.00  0.00   323     4.63    394     0.0  0.00   0.0   0.055   0.000   73.3    49   53.0   72.8   9.05  .0733    0.000   213    5    100.0   10 
10/17/19  2:30p   57.2   57.2   57.1    82   51.8  17.0   SSW   2.83  29.0   SSW   50.7   57.0   50.5   54.7  29.863  0.00  0.00   301     4.31    338     0.0  0.00   0.0   0.054   0.000   73.3    49   53.0   72.8   9.05  .0733    0.000   213    5    100.0   10 
10/17/19  2:40p   57.1   57.3   57.1    82   51.7  17.0   SSW   2.83  34.0     S   50.6   56.9   50.4   53.7  29.858  0.00  0.00   242     3.47    272     0.0  0.00   0.0   0.055   0.000   73.4    49   53.1   72.9   9.05  .0733    0.000   212    5    100.0   10 
10/17/19  2:50p   57.2   57.2   57.1    82   51.8  17.0   SSW   2.83  32.0   SSW   50.7   57.0   50.5   53.2  29.855  0.00  0.00   204     2.92    223     0.0  0.00   0.0   0.054   0.000   73.3    49   53.0   72.8   9.05  .0733    0.000   212    5    100.0   10 
10/17/19  3:00p   57.3   57.4   57.3    81   51.5  17.0   SSW   2.83  29.0   SSE   50.9   57.1   50.7   53.4  29.852  0.00  0.00   206     2.95    239     0.0  0.00   0.0   0.053   0.000   73.4    49   53.1   72.9   9.05  .0733    0.007   213    5    100.0   10 
10/17/19  3:10p   57.3   57.3   57.2    81   51.5  18.0   SSW   3.00  28.0   SSW   50.6   57.1   50.4   53.5  29.851  0.00  0.00   228     3.27    315     0.0  0.00   0.0   0.053   0.000   73.3    49   53.0   72.8   9.05  .0733    0.000   214    5    100.0   10 
10/17/19  3:20p   57.4   57.4   57.3    81   51.6  16.0   SSW   2.67  26.0   SSW   51.3   57.2   51.1   53.6  29.854  0.00  0.00   181     2.59    195     0.0  0.00   0.0   0.053   0.000   73.4    49   53.1   72.9   9.05  .0733    0.000   213    5    100.0   10 
10/17/19  3:30p   57.4   57.5   57.3    81   51.6  18.0   SSW   3.00  28.0   SSE   50.7   57.2   50.5   52.5  29.850  0.00  0.00   161     2.31    186     0.0  0.00   0.0   0.053   0.000   73.3    49   53.0   72.8   9.05  .0733    0.000   213    5    100.0   10 
10/17/19  3:40p   57.4   57.5   57.4    81   51.6  16.0   SSW   2.67  30.0   SSW   51.3   57.2   51.1   51.6  29.850  0.00  0.00    85     1.22    153     0.0  0.00   0.0   0.053   0.000   73.3    49   53.0   72.8   9.05  .0733    0.000   211    5    100.0   10 
10/17/19  3:50p   57.3   57.4   57.3    81   51.5  18.0   SSW   3.00  31.0   SSW   50.6   57.1   50.4   50.1  29.847  0.00  0.00    47     0.67     65     0.0  0.00   0.0   0.053   0.000   73.3    49   53.0   72.8   9.05  .0733    0.000   211    5    100.0   10 
10/17/19  4:00p   57.3   57.4   57.2    81   51.5  17.0   SSW   2.83  30.0   SSE   50.9   57.1   50.7   50.8  29.841  0.00  0.00    69     0.99    100     0.0  0.00   0.0   0.053   0.000   73.2    49   52.9   72.7   9.05  .0733    0.005   212    5    100.0   10 
Email: AdamSPAM@StormwatchersRetreat.com (To send me email remove the word 'SPAM' from my email address.)